sensor_id;sensor_type;location;lat;lon;timestamp;P1;P2;P0
42002;PMS7003;27693;50.506;30.832;2023-08-17T00:00:20;16.00;14.60;11.60
42002;PMS7003;27693;50.506;30.832;2023-08-17T00:01:24;13.40;12.80;10.40
42002;PMS7003;27693;50.506;30.832;2023-08-17T00:02:27;15.60;15.60;11.90
42002;PMS7003;27693;50.506;30.832;2023-08-17T00:03:29;15.20;12.80;11.60
42002;PMS7003;27693;50.506;30.832;2023-08-17T00:04:32;15.00;13.40;11.60
42002;PMS7003;27693;50.506;30.832;2023-08-17T00:05:34;15.60;13.50;10.70
42002;PMS7003;27693;50.506;30.832;2023-08-17T00:06:36;14.20;13.70;11.30
42002;PMS7003;27693;50.506;30.832;2023-08-17T00:07:39;13.90;12.90;10.70
42002;PMS7003;27693;50.506;30.832;2023-08-17T00:08:41;15.30;15.30;12.20
42002;PMS7003;27693;50.506;30.832;2023-08-17T00:09:44;15.00;12.50;10.60
42002;PMS7003;27693;50.506;30.832;2023-08-17T00:10:47;12.00;11.20;9.10
42002;PMS7003;27693;50.506;30.832;2023-08-17T00:11:50;17.90;14.50;11.90
42002;PMS7003;27693;50.506;30.832;2023-08-17T00:12:54;15.70;13.70;10.30
42002;PMS7003;27693;50.506;30.832;2023-08-17T00:13:57;20.90;15.20;12.30
42002;PMS7003;27693;50.506;30.832;2023-08-17T00:14:59;15.40;13.90;12.10
42002;PMS7003;27693;50.506;30.832;2023-08-17T00:16:02;18.80;15.40;11.30
42002;PMS7003;27693;50.506;30.832;2023-08-17T00:17:05;15.18;14.36;12.45
42002;PMS7003;27693;50.506;30.832;2023-08-17T00:18:07;14.20;14.10;12.00
42002;PMS7003;27693;50.506;30.832;2023-08-17T00:19:10;15.27;14.82;11.73
42002;PMS7003;27693;50.506;30.832;2023-08-17T00:20:14;17.80;14.30;12.20
42002;PMS7003;27693;50.506;30.832;2023-08-17T00:21:17;16.80;14.60;12.00
42002;PMS7003;27693;50.506;30.832;2023-08-17T00:22:20;15.20;13.30;11.90
42002;PMS7003;27693;50.506;30.832;2023-08-17T00:23:23;14.70;13.60;10.60
42002;PMS7003;27693;50.506;30.832;2023-08-17T00:24:25;13.90;13.90;10.60
42002;PMS7003;27693;50.506;30.832;2023-08-17T00:25:28;18.27;14.82;12.36
42002;PMS7003;27693;50.506;30.832;2023-08-17T00:26:31;14.50;14.00;12.00
42002;PMS7003;27693;50.506;30.832;2023-08-17T00:27:33;11.10;11.10;9.20
42002;PMS7003;27693;50.506;30.832;2023-08-17T00:28:37;14.90;14.60;11.60
42002;PMS7003;27693;50.506;30.832;2023-08-17T00:29:39;17.45;13.55;10.00
42002;PMS7003;27693;50.506;30.832;2023-08-17T00:30:43;13.20;12.50;9.40
42002;PMS7003;27693;50.506;30.832;2023-08-17T00:31:47;13.60;12.10;9.90
42002;PMS7003;27693;50.506;30.832;2023-08-17T00:32:49;15.36;12.82;10.27
42002;PMS7003;27693;50.506;30.832;2023-08-17T00:33:54;16.00;15.00;11.50
42002;PMS7003;27693;50.506;30.832;2023-08-17T00:34:57;14.09;13.64;11.09
42002;PMS7003;27693;50.506;30.832;2023-08-17T00:35:59;12.90;12.90;10.50
42002;PMS7003;27693;50.506;30.832;2023-08-17T00:37:01;15.40;13.90;11.70
42002;PMS7003;27693;50.506;30.832;2023-08-17T00:38:04;16.80;15.10;11.80
42002;PMS7003;27693;50.506;30.832;2023-08-17T00:39:07;14.30;12.20;9.40
42002;PMS7003;27693;50.506;30.832;2023-08-17T00:40:11;15.20;12.40;10.60
42002;PMS7003;27693;50.506;30.832;2023-08-17T00:41:14;19.00;15.60;11.80
42002;PMS7003;27693;50.506;30.832;2023-08-17T00:42:16;16.90;15.90;12.50
42002;PMS7003;27693;50.506;30.832;2023-08-17T00:43:19;14.50;14.00;11.10
42002;PMS7003;27693;50.506;30.832;2023-08-17T00:44:21;16.40;15.60;12.00
42002;PMS7003;27693;50.506;30.832;2023-08-17T00:45:24;14.50;11.00;8.70
42002;PMS7003;27693;50.506;30.832;2023-08-17T00:46:26;17.60;14.70;11.70
42002;PMS7003;27693;50.506;30.832;2023-08-17T00:47:30;16.10;13.40;10.60
42002;PMS7003;27693;50.506;30.832;2023-08-17T00:48:33;17.60;15.80;12.60
42002;PMS7003;27693;50.506;30.832;2023-08-17T00:49:36;15.90;14.20;12.00
42002;PMS7003;27693;50.506;30.832;2023-08-17T00:50:38;18.90;15.60;12.20
42002;PMS7003;27693;50.506;30.832;2023-08-17T00:51:42;16.80;15.10;11.40
42002;PMS7003;27693;50.506;30.832;2023-08-17T00:52:45;19.30;15.50;12.50
42002;PMS7003;27693;50.506;30.832;2023-08-17T00:53:47;18.40;17.40;13.00
42002;PMS7003;27693;50.506;30.832;2023-08-17T00:54:50;19.10;17.20;12.60
42002;PMS7003;27693;50.506;30.832;2023-08-17T00:55:53;18.20;16.50;13.10
42002;PMS7003;27693;50.506;30.832;2023-08-17T00:56:56;18.00;16.30;13.10
42002;PMS7003;27693;50.506;30.832;2023-08-17T00:57:59;20.30;18.20;12.10
42002;PMS7003;27693;50.506;30.832;2023-08-17T00:59:04;24.50;20.50;14.30
42002;PMS7003;27693;50.506;30.832;2023-08-17T01:00:08;24.10;18.30;13.80
42002;PMS7003;27693;50.506;30.832;2023-08-17T01:01:14;28.00;20.30;15.30
42002;PMS7003;27693;50.506;30.832;2023-08-17T01:02:16;19.80;15.70;13.00
42002;PMS7003;27693;50.506;30.832;2023-08-17T01:03:20;20.20;14.70;11.20
42002;PMS7003;27693;50.506;30.832;2023-08-17T01:04:25;22.40;19.80;14.70
42002;PMS7003;27693;50.506;30.832;2023-08-17T01:05:27;21.70;18.70;14.10
42002;PMS7003;27693;50.506;30.832;2023-08-17T01:06:31;28.60;21.00;13.40
42002;PMS7003;27693;50.506;30.832;2023-08-17T01:07:33;24.30;21.30;15.40
42002;PMS7003;27693;50.506;30.832;2023-08-17T01:08:36;28.18;19.55;14.73
42002;PMS7003;27693;50.506;30.832;2023-08-17T01:09:41;23.90;18.30;14.50
42002;PMS7003;27693;50.506;30.832;2023-08-17T01:10:50;20.00;14.40;12.80
42002;PMS7003;27693;50.506;30.832;2023-08-17T01:12:00;26.30;19.90;14.20
42002;PMS7003;27693;50.506;30.832;2023-08-17T01:13:20;25.40;19.20;13.60
42002;PMS7003;27693;50.506;30.832;2023-08-17T01:15:42;25.30;16.00;11.20
42002;PMS7003;27693;50.506;30.832;2023-08-17T01:16:52;25.90;17.40;13.10
42002;PMS7003;27693;50.506;30.832;2023-08-17T01:18:22;24.40;18.80;13.80
42002;PMS7003;27693;50.506;30.832;2023-08-17T01:19:27;27.00;22.20;13.70
42002;PMS7003;27693;50.506;30.832;2023-08-17T01:20:30;20.50;17.80;12.70
42002;PMS7003;27693;50.506;30.832;2023-08-17T01:22:51;21.60;16.70;13.30
42002;PMS7003;27693;50.506;30.832;2023-08-17T01:23:58;13.60;12.20;6.90
42002;PMS7003;27693;50.506;30.832;2023-08-17T01:25:04;17.20;15.10;11.90
42002;PMS7003;27693;50.506;30.832;2023-08-17T01:26:07;17.70;17.50;13.60
42002;PMS7003;27693;50.506;30.832;2023-08-17T01:27:09;21.20;18.40;13.70
42002;PMS7003;27693;50.506;30.832;2023-08-17T01:28:12;21.40;15.60;11.60
42002;PMS7003;27693;50.506;30.832;2023-08-17T01:29:14;19.60;15.00;12.50
42002;PMS7003;27693;50.506;30.832;2023-08-17T01:30:18;22.80;17.90;12.20
42002;PMS7003;27693;50.506;30.832;2023-08-17T01:31:30;21.50;15.90;12.50
42002;PMS7003;27693;50.506;30.832;2023-08-17T01:34:03;18.60;15.60;11.80
42002;PMS7003;27693;50.506;30.832;2023-08-17T01:35:09;21.00;16.30;11.70
42002;PMS7003;27693;50.506;30.832;2023-08-17T01:36:11;22.20;16.60;12.70
42002;PMS7003;27693;50.506;30.832;2023-08-17T01:37:18;14.80;12.40;10.70
42002;PMS7003;27693;50.506;30.832;2023-08-17T01:38:23;22.30;16.50;12.50
42002;PMS7003;27693;50.506;30.832;2023-08-17T01:39:31;23.30;16.20;12.20
42002;PMS7003;27693;50.506;30.832;2023-08-17T01:40:34;21.20;17.00;13.80
42002;PMS7003;27693;50.506;30.832;2023-08-17T01:41:37;16.20;14.40;10.80
42002;PMS7003;27693;50.506;30.832;2023-08-17T01:42:43;19.00;16.80;11.80
42002;PMS7003;27693;50.506;30.832;2023-08-17T01:43:45;19.60;16.70;13.20
42002;PMS7003;27693;50.506;30.832;2023-08-17T01:44:50;20.80;15.40;12.00
42002;PMS7003;27693;50.506;30.832;2023-08-17T01:45:53;18.10;16.40;12.70
42002;PMS7003;27693;50.506;30.832;2023-08-17T01:46:56;20.82;16.82;11.64
42002;PMS7003;27693;50.506;30.832;2023-08-17T01:47:59;19.30;14.10;10.40
42002;PMS7003;27693;50.506;30.832;2023-08-17T01:49:01;23.20;15.80;12.30
42002;PMS7003;27693;50.506;30.832;2023-08-17T01:50:05;22.80;16.50;12.20
42002;PMS7003;27693;50.506;30.832;2023-08-17T01:51:09;21.90;17.70;13.60
42002;PMS7003;27693;50.506;30.832;2023-08-17T01:52:12;19.30;15.90;12.40
42002;PMS7003;27693;50.506;30.832;2023-08-17T01:53:14;15.20;14.80;11.50
42002;PMS7003;27693;50.506;30.832;2023-08-17T01:54:17;21.00;16.80;13.70
42002;PMS7003;27693;50.506;30.832;2023-08-17T01:55:20;19.30;14.50;11.50
42002;PMS7003;27693;50.506;30.832;2023-08-17T01:56:34;21.70;17.90;14.20
42002;PMS7003;27693;50.506;30.832;2023-08-17T01:57:36;15.50;15.20;11.20
42002;PMS7003;27693;50.506;30.832;2023-08-17T01:58:40;19.70;17.00;14.10
42002;PMS7003;27693;50.506;30.832;2023-08-17T01:59:42;18.50;16.80;12.80
42002;PMS7003;27693;50.506;30.832;2023-08-17T02:00:45;16.60;14.30;11.70
42002;PMS7003;27693;50.506;30.832;2023-08-17T02:01:48;16.30;14.50;11.40
42002;PMS7003;27693;50.506;30.832;2023-08-17T02:02:50;19.70;18.00;13.60
42002;PMS7003;27693;50.506;30.832;2023-08-17T02:03:53;21.09;15.73;12.82
42002;PMS7003;27693;50.506;30.832;2023-08-17T02:04:55;21.60;16.60;12.90
42002;PMS7003;27693;50.506;30.832;2023-08-17T02:05:58;17.50;16.00;12.20
42002;PMS7003;27693;50.506;30.832;2023-08-17T02:07:03;16.60;15.50;12.50
42002;PMS7003;27693;50.506;30.832;2023-08-17T02:08:05;15.80;14.20;11.90
42002;PMS7003;27693;50.506;30.832;2023-08-17T02:09:08;20.73;19.55;14.55
42002;PMS7003;27693;50.506;30.832;2023-08-17T02:10:11;18.00;16.60;13.60
42002;PMS7003;27693;50.506;30.832;2023-08-17T02:11:14;18.82;18.27;14.27
42002;PMS7003;27693;50.506;30.832;2023-08-17T02:12:16;17.90;16.90;13.30
42002;PMS7003;27693;50.506;30.832;2023-08-17T02:13:20;22.00;19.60;14.00
42002;PMS7003;27693;50.506;30.832;2023-08-17T02:14:22;19.80;19.00;14.50
42002;PMS7003;27693;50.506;30.832;2023-08-17T02:15:25;18.00;17.60;13.60
42002;PMS7003;27693;50.506;30.832;2023-08-17T02:16:27;18.60;17.50;14.10
42002;PMS7003;27693;50.506;30.832;2023-08-17T02:17:29;18.40;18.10;14.40
42002;PMS7003;27693;50.506;30.832;2023-08-17T02:18:32;17.36;15.27;12.00
42002;PMS7003;27693;50.506;30.832;2023-08-17T02:19:36;18.30;17.10;13.90
42002;PMS7003;27693;50.506;30.832;2023-08-17T02:20:39;11.80;11.60;11.10
42002;PMS7003;27693;50.506;30.832;2023-08-17T02:21:41;19.18;18.36;15.45
42002;PMS7003;27693;50.506;30.832;2023-08-17T02:22:44;19.50;17.10;14.90
42002;PMS7003;27693;50.506;30.832;2023-08-17T02:23:46;20.60;17.50;13.70
42002;PMS7003;27693;50.506;30.832;2023-08-17T02:24:48;20.10;18.20;13.90
42002;PMS7003;27693;50.506;30.832;2023-08-17T02:25:50;17.80;16.40;13.50
42002;PMS7003;27693;50.506;30.832;2023-08-17T02:26:54;16.90;15.70;13.20
42002;PMS7003;27693;50.506;30.832;2023-08-17T02:27:58;19.10;16.70;13.70
42002;PMS7003;27693;50.506;30.832;2023-08-17T02:29:02;18.70;16.50;13.20
42002;PMS7003;27693;50.506;30.832;2023-08-17T02:30:05;18.80;17.40;13.30
42002;PMS7003;27693;50.506;30.832;2023-08-17T02:31:09;19.30;17.30;14.00
42002;PMS7003;27693;50.506;30.832;2023-08-17T02:32:12;17.91;17.91;12.73
42002;PMS7003;27693;50.506;30.832;2023-08-17T02:33:14;17.20;16.10;12.90
42002;PMS7003;27693;50.506;30.832;2023-08-17T02:34:17;18.80;16.50;13.60
42002;PMS7003;27693;50.506;30.832;2023-08-17T02:35:20;16.00;15.09;12.82
42002;PMS7003;27693;50.506;30.832;2023-08-17T02:36:22;16.30;15.30;13.60
42002;PMS7003;27693;50.506;30.832;2023-08-17T02:37:24;20.90;19.20;15.20
42002;PMS7003;27693;50.506;30.832;2023-08-17T02:38:27;17.50;17.20;13.20
42002;PMS7003;27693;50.506;30.832;2023-08-17T02:39:29;15.40;14.90;10.50
42002;PMS7003;27693;50.506;30.832;2023-08-17T02:40:32;18.50;16.20;12.70
42002;PMS7003;27693;50.506;30.832;2023-08-17T02:41:34;20.90;19.00;14.50
42002;PMS7003;27693;50.506;30.832;2023-08-17T02:42:36;19.40;17.50;13.40
42002;PMS7003;27693;50.506;30.832;2023-08-17T02:43:41;18.80;17.10;13.40
42002;PMS7003;27693;50.506;30.832;2023-08-17T02:44:43;16.90;15.10;11.80
42002;PMS7003;27693;50.506;30.832;2023-08-17T02:45:45;18.00;16.50;13.60
42002;PMS7003;27693;50.506;30.832;2023-08-17T02:46:49;19.70;18.00;13.70
42002;PMS7003;27693;50.506;30.832;2023-08-17T02:47:51;18.10;16.20;12.60
42002;PMS7003;27693;50.506;30.832;2023-08-17T02:48:53;18.10;16.70;13.50
42002;PMS7003;27693;50.506;30.832;2023-08-17T02:49:56;16.80;15.70;13.10
42002;PMS7003;27693;50.506;30.832;2023-08-17T02:50:58;17.40;15.80;13.10
42002;PMS7003;27693;50.506;30.832;2023-08-17T02:52:00;17.60;16.30;12.70
42002;PMS7003;27693;50.506;30.832;2023-08-17T02:53:04;18.60;15.90;12.90
42002;PMS7003;27693;50.506;30.832;2023-08-17T02:54:07;16.50;14.50;11.70
42002;PMS7003;27693;50.506;30.832;2023-08-17T02:55:10;16.30;14.60;12.50
42002;PMS7003;27693;50.506;30.832;2023-08-17T02:56:12;16.40;16.10;11.70
42002;PMS7003;27693;50.506;30.832;2023-08-17T02:57:15;16.10;15.20;12.50
42002;PMS7003;27693;50.506;30.832;2023-08-17T02:58:17;19.80;17.20;14.20
42002;PMS7003;27693;50.506;30.832;2023-08-17T02:59:19;19.50;17.90;12.60
42002;PMS7003;27693;50.506;30.832;2023-08-17T03:00:22;20.20;16.80;12.70
42002;PMS7003;27693;50.506;30.832;2023-08-17T03:01:24;17.30;15.50;13.10
42002;PMS7003;27693;50.506;30.832;2023-08-17T03:02:27;15.70;14.00;11.60
42002;PMS7003;27693;50.506;30.832;2023-08-17T03:03:29;16.80;15.40;12.40
42002;PMS7003;27693;50.506;30.832;2023-08-17T03:04:32;19.90;16.60;13.20
42002;PMS7003;27693;50.506;30.832;2023-08-17T03:05:35;17.18;15.64;12.64
42002;PMS7003;27693;50.506;30.832;2023-08-17T03:06:37;17.10;16.40;12.50
42002;PMS7003;27693;50.506;30.832;2023-08-17T03:07:40;20.10;16.70;12.50
42002;PMS7003;27693;50.506;30.832;2023-08-17T03:08:43;16.30;13.80;11.70
42002;PMS7003;27693;50.506;30.832;2023-08-17T03:09:46;18.80;16.60;12.80
42002;PMS7003;27693;50.506;30.832;2023-08-17T03:10:48;18.30;14.80;12.30
42002;PMS7003;27693;50.506;30.832;2023-08-17T03:11:53;18.50;13.90;12.10
42002;PMS7003;27693;50.506;30.832;2023-08-17T03:12:55;17.40;16.70;12.60
42002;PMS7003;27693;50.506;30.832;2023-08-17T03:13:58;20.80;16.40;12.60
42002;PMS7003;27693;50.506;30.832;2023-08-17T03:15:05;15.80;14.20;11.20
42002;PMS7003;27693;50.506;30.832;2023-08-17T03:16:09;16.30;14.40;10.70
42002;PMS7003;27693;50.506;30.832;2023-08-17T03:17:12;19.50;15.90;12.80
42002;PMS7003;27693;50.506;30.832;2023-08-17T03:18:15;16.90;15.50;11.70
42002;PMS7003;27693;50.506;30.832;2023-08-17T03:19:17;13.90;12.70;11.20
42002;PMS7003;27693;50.506;30.832;2023-08-17T03:20:20;16.60;16.40;12.80
42002;PMS7003;27693;50.506;30.832;2023-08-17T03:21:23;16.90;14.80;12.20
42002;PMS7003;27693;50.506;30.832;2023-08-17T03:22:26;18.10;15.40;12.50
42002;PMS7003;27693;50.506;30.832;2023-08-17T03:23:29;15.64;15.64;12.27
42002;PMS7003;27693;50.506;30.832;2023-08-17T03:24:32;19.55;17.91;14.45
42002;PMS7003;27693;50.506;30.832;2023-08-17T03:25:35;15.00;14.45;11.45
42002;PMS7003;27693;50.506;30.832;2023-08-17T03:26:37;17.40;14.60;12.20
42002;PMS7003;27693;50.506;30.832;2023-08-17T03:27:41;17.40;15.60;12.00
42002;PMS7003;27693;50.506;30.832;2023-08-17T03:28:44;18.10;14.90;12.50
42002;PMS7003;27693;50.506;30.832;2023-08-17T03:29:47;18.80;17.00;14.30
42002;PMS7003;27693;50.506;30.832;2023-08-17T03:30:49;17.70;16.90;13.30
42002;PMS7003;27693;50.506;30.832;2023-08-17T03:31:52;19.30;16.40;13.20
42002;PMS7003;27693;50.506;30.832;2023-08-17T03:32:56;16.50;15.80;12.30
42002;PMS7003;27693;50.506;30.832;2023-08-17T03:34:00;16.90;14.80;12.10
42002;PMS7003;27693;50.506;30.832;2023-08-17T03:35:03;18.55;16.64;13.36
42002;PMS7003;27693;50.506;30.832;2023-08-17T03:36:06;18.30;15.80;12.60
42002;PMS7003;27693;50.506;30.832;2023-08-17T03:37:09;18.36;16.73;12.27
42002;PMS7003;27693;50.506;30.832;2023-08-17T03:38:12;18.82;15.45;12.00
42002;PMS7003;27693;50.506;30.832;2023-08-17T03:39:15;15.90;15.00;12.60
42002;PMS7003;27693;50.506;30.832;2023-08-17T03:40:18;18.40;16.40;12.50
42002;PMS7003;27693;50.506;30.832;2023-08-17T03:41:21;16.30;15.20;12.10
42002;PMS7003;27693;50.506;30.832;2023-08-17T03:42:25;16.70;15.00;11.90
42002;PMS7003;27693;50.506;30.832;2023-08-17T03:43:27;15.40;14.60;11.90
42002;PMS7003;27693;50.506;30.832;2023-08-17T03:44:30;14.90;14.00;11.30
42002;PMS7003;27693;50.506;30.832;2023-08-17T03:45:33;14.40;12.90;11.30
42002;PMS7003;27693;50.506;30.832;2023-08-17T03:46:36;15.80;12.80;10.20
42002;PMS7003;27693;50.506;30.832;2023-08-17T03:47:39;17.60;15.20;11.60
42002;PMS7003;27693;50.506;30.832;2023-08-17T03:48:41;14.30;13.60;12.40
42002;PMS7003;27693;50.506;30.832;2023-08-17T03:49:43;16.90;16.20;12.90
42002;PMS7003;27693;50.506;30.832;2023-08-17T03:50:47;18.60;14.70;11.50
42002;PMS7003;27693;50.506;30.832;2023-08-17T03:51:51;17.10;13.90;10.40
42002;PMS7003;27693;50.506;30.832;2023-08-17T03:52:53;17.50;15.60;12.30
42002;PMS7003;27693;50.506;30.832;2023-08-17T03:53:56;13.82;12.27;10.09
42002;PMS7003;27693;50.506;30.832;2023-08-17T03:54:59;15.55;14.45;12.09
42002;PMS7003;27693;50.506;30.832;2023-08-17T03:56:02;13.90;13.60;10.20
42002;PMS7003;27693;50.506;30.832;2023-08-17T03:57:04;17.50;15.80;12.90
42002;PMS7003;27693;50.506;30.832;2023-08-17T03:58:06;16.90;13.80;11.30
42002;PMS7003;27693;50.506;30.832;2023-08-17T03:59:09;14.60;13.70;11.10
42002;PMS7003;27693;50.506;30.832;2023-08-17T04:00:12;15.80;14.30;11.50
42002;PMS7003;27693;50.506;30.832;2023-08-17T04:01:17;18.10;16.20;13.70
42002;PMS7003;27693;50.506;30.832;2023-08-17T04:02:20;17.50;15.00;12.10
42002;PMS7003;27693;50.506;30.832;2023-08-17T04:03:22;15.30;13.10;10.10
42002;PMS7003;27693;50.506;30.832;2023-08-17T04:04:25;15.10;15.10;10.80
42002;PMS7003;27693;50.506;30.832;2023-08-17T04:05:27;16.73;14.09;10.82
42002;PMS7003;27693;50.506;30.832;2023-08-17T04:06:30;15.20;14.60;11.30
42002;PMS7003;27693;50.506;30.832;2023-08-17T04:07:32;17.10;14.60;12.20
42002;PMS7003;27693;50.506;30.832;2023-08-17T04:08:38;15.90;13.10;10.80
42002;PMS7003;27693;50.506;30.832;2023-08-17T04:09:43;13.60;13.30;10.30
42002;PMS7003;27693;50.506;30.832;2023-08-17T04:10:46;14.20;12.50;10.80
42002;PMS7003;27693;50.506;30.832;2023-08-17T04:11:48;16.10;13.90;11.00
42002;PMS7003;27693;50.506;30.832;2023-08-17T04:12:51;15.80;14.20;12.20
42002;PMS7003;27693;50.506;30.832;2023-08-17T04:13:54;14.55;14.55;11.45
42002;PMS7003;27693;50.506;30.832;2023-08-17T04:14:56;17.60;15.40;12.00
42002;PMS7003;27693;50.506;30.832;2023-08-17T04:16:00;13.90;13.00;10.60
42002;PMS7003;27693;50.506;30.832;2023-08-17T04:17:03;16.60;14.00;11.30
42002;PMS7003;27693;50.506;30.832;2023-08-17T04:18:06;15.80;14.40;9.90
42002;PMS7003;27693;50.506;30.832;2023-08-17T04:19:09;16.09;14.45;11.91
42002;PMS7003;27693;50.506;30.832;2023-08-17T04:20:12;15.20;14.40;10.60
42002;PMS7003;27693;50.506;30.832;2023-08-17T04:21:15;16.60;15.20;11.30
42002;PMS7003;27693;50.506;30.832;2023-08-17T04:22:17;12.90;11.80;9.60
42002;PMS7003;27693;50.506;30.832;2023-08-17T04:23:19;17.00;13.20;10.30
42002;PMS7003;27693;50.506;30.832;2023-08-17T04:24:23;14.00;12.40;10.80
42002;PMS7003;27693;50.506;30.832;2023-08-17T04:25:25;12.70;12.20;10.00
42002;PMS7003;27693;50.506;30.832;2023-08-17T04:26:28;14.60;13.10;10.70
42002;PMS7003;27693;50.506;30.832;2023-08-17T04:27:30;17.40;16.30;11.90
42002;PMS7003;27693;50.506;30.832;2023-08-17T04:28:32;12.90;11.10;9.60
42002;PMS7003;27693;50.506;30.832;2023-08-17T04:29:35;14.40;12.60;10.90
42002;PMS7003;27693;50.506;30.832;2023-08-17T04:30:39;13.60;11.80;9.20
42002;PMS7003;27693;50.506;30.832;2023-08-17T04:31:42;16.40;14.60;11.10
42002;PMS7003;27693;50.506;30.832;2023-08-17T04:32:45;14.91;13.09;10.18
42002;PMS7003;27693;50.506;30.832;2023-08-17T04:33:51;13.00;12.70;10.00
42002;PMS7003;27693;50.506;30.832;2023-08-17T04:34:54;14.50;13.40;10.10
42002;PMS7003;27693;50.506;30.832;2023-08-17T04:35:57;15.27;14.00;11.27
42002;PMS7003;27693;50.506;30.832;2023-08-17T04:37:01;13.60;13.20;10.80
42002;PMS7003;27693;50.506;30.832;2023-08-17T04:38:04;13.30;12.70;11.00
42002;PMS7003;27693;50.506;30.832;2023-08-17T04:39:06;15.80;12.60;10.60
42002;PMS7003;27693;50.506;30.832;2023-08-17T04:40:10;14.10;12.10;10.20
42002;PMS7003;27693;50.506;30.832;2023-08-17T04:41:14;14.50;13.70;11.00
42002;PMS7003;27693;50.506;30.832;2023-08-17T04:42:17;13.10;12.30;9.90
42002;PMS7003;27693;50.506;30.832;2023-08-17T04:43:21;15.50;13.30;11.40
42002;PMS7003;27693;50.506;30.832;2023-08-17T04:44:24;12.50;10.90;8.80
42002;PMS7003;27693;50.506;30.832;2023-08-17T04:45:27;13.90;13.90;10.10
42002;PMS7003;27693;50.506;30.832;2023-08-17T04:46:29;13.20;12.40;9.50
42002;PMS7003;27693;50.506;30.832;2023-08-17T04:47:33;15.20;13.50;11.20
42002;PMS7003;27693;50.506;30.832;2023-08-17T04:48:35;18.00;12.50;9.60
42002;PMS7003;27693;50.506;30.832;2023-08-17T04:49:37;12.40;11.30;9.70
42002;PMS7003;27693;50.506;30.832;2023-08-17T04:50:41;11.90;10.50;8.30
42002;PMS7003;27693;50.506;30.832;2023-08-17T04:51:45;15.00;12.20;9.80
42002;PMS7003;27693;50.506;30.832;2023-08-17T04:52:49;13.60;11.70;10.10
42002;PMS7003;27693;50.506;30.832;2023-08-17T04:53:52;8.00;7.30;5.90
42002;PMS7003;27693;50.506;30.832;2023-08-17T04:54:55;12.70;12.10;9.60
42002;PMS7003;27693;50.506;30.832;2023-08-17T04:56:02;15.10;13.70;11.70
42002;PMS7003;27693;50.506;30.832;2023-08-17T04:57:01;13.20;11.80;8.90
42002;PMS7003;27693;50.506;30.832;2023-08-17T04:58:06;13.70;12.00;10.30
42002;PMS7003;27693;50.506;30.832;2023-08-17T04:59:08;13.20;12.30;10.40
42002;PMS7003;27693;50.506;30.832;2023-08-17T05:00:11;13.80;13.30;11.30
42002;PMS7003;27693;50.506;30.832;2023-08-17T05:01:16;11.90;11.40;10.10
42002;PMS7003;27693;50.506;30.832;2023-08-17T05:02:22;12.00;10.60;9.60
42002;PMS7003;27693;50.506;30.832;2023-08-17T05:03:25;11.09;11.09;9.45
42002;PMS7003;27693;50.506;30.832;2023-08-17T05:04:29;14.60;12.90;9.50
42002;PMS7003;27693;50.506;30.832;2023-08-17T05:05:32;12.36;11.00;8.82
42002;PMS7003;27693;50.506;30.832;2023-08-17T05:06:39;13.70;12.90;9.80
42002;PMS7003;27693;50.506;30.832;2023-08-17T05:07:41;11.60;11.60;10.00
42002;PMS7003;27693;50.506;30.832;2023-08-17T05:08:43;13.50;12.40;10.30
42002;PMS7003;27693;50.506;30.832;2023-08-17T05:09:47;15.50;13.40;11.60
42002;PMS7003;27693;50.506;30.832;2023-08-17T05:10:49;15.00;13.40;10.20
42002;PMS7003;27693;50.506;30.832;2023-08-17T05:11:52;13.60;12.80;10.90
42002;PMS7003;27693;50.506;30.832;2023-08-17T05:12:56;15.10;13.70;10.10
42002;PMS7003;27693;50.506;30.832;2023-08-17T05:13:58;12.64;12.36;9.82
42002;PMS7003;27693;50.506;30.832;2023-08-17T05:15:04;12.40;10.90;9.30
42002;PMS7003;27693;50.506;30.832;2023-08-17T05:16:08;11.40;11.40;9.20
42002;PMS7003;27693;50.506;30.832;2023-08-17T05:17:10;13.82;12.18;9.73
42002;PMS7003;27693;50.506;30.832;2023-08-17T05:18:13;15.20;13.00;10.20
42002;PMS7003;27693;50.506;30.832;2023-08-17T05:19:17;11.00;11.00;8.80
42002;PMS7003;27693;50.506;30.832;2023-08-17T05:20:20;12.00;11.40;10.10
42002;PMS7003;27693;50.506;30.832;2023-08-17T05:21:23;12.10;11.80;9.90
42002;PMS7003;27693;50.506;30.832;2023-08-17T05:22:27;11.90;11.90;9.80
42002;PMS7003;27693;50.506;30.832;2023-08-17T05:23:29;12.50;10.40;8.50
42002;PMS7003;27693;50.506;30.832;2023-08-17T05:24:32;14.10;11.80;8.90
42002;PMS7003;27693;50.506;30.832;2023-08-17T05:25:34;9.80;9.80;8.70
42002;PMS7003;27693;50.506;30.832;2023-08-17T05:26:36;13.00;12.20;10.00
42002;PMS7003;27693;50.506;30.832;2023-08-17T05:27:40;11.80;11.40;8.20
42002;PMS7003;27693;50.506;30.832;2023-08-17T05:28:43;15.90;12.90;10.20
42002;PMS7003;27693;50.506;30.832;2023-08-17T05:29:46;12.80;12.30;10.40
42002;PMS7003;27693;50.506;30.832;2023-08-17T05:30:49;15.27;12.00;10.64
42002;PMS7003;27693;50.506;30.832;2023-08-17T05:31:53;11.90;11.80;10.00
42002;PMS7003;27693;50.506;30.832;2023-08-17T05:32:56;12.30;10.80;9.80
42002;PMS7003;27693;50.506;30.832;2023-08-17T05:33:58;14.70;12.30;10.10
42002;PMS7003;27693;50.506;30.832;2023-08-17T05:35:01;13.36;12.18;10.36
42002;PMS7003;27693;50.506;30.832;2023-08-17T05:36:04;13.70;12.10;10.20
42002;PMS7003;27693;50.506;30.832;2023-08-17T05:37:06;13.20;12.10;10.50
42002;PMS7003;27693;50.506;30.832;2023-08-17T05:38:10;11.60;11.60;9.30
42002;PMS7003;27693;50.506;30.832;2023-08-17T05:39:12;12.50;11.30;9.30
42002;PMS7003;27693;50.506;30.832;2023-08-17T05:40:14;11.67;10.56;8.56
42002;PMS7003;27693;50.506;30.832;2023-08-17T05:41:18;12.00;10.60;9.40
42002;PMS7003;27693;50.506;30.832;2023-08-17T05:42:20;13.10;12.40;10.60
42002;PMS7003;27693;50.506;30.832;2023-08-17T05:43:23;12.80;11.20;8.70
42002;PMS7003;27693;50.506;30.832;2023-08-17T05:44:26;11.70;11.00;9.10
42002;PMS7003;27693;50.506;30.832;2023-08-17T05:45:29;12.18;11.36;9.82
42002;PMS7003;27693;50.506;30.832;2023-08-17T05:46:31;10.40;9.40;7.80
42002;PMS7003;27693;50.506;30.832;2023-08-17T05:47:34;11.50;10.50;8.80
42002;PMS7003;27693;50.506;30.832;2023-08-17T05:48:37;13.00;11.30;9.50
42002;PMS7003;27693;50.506;30.832;2023-08-17T05:49:39;12.80;11.80;9.10
42002;PMS7003;27693;50.506;30.832;2023-08-17T05:50:42;13.10;11.70;9.40
42002;PMS7003;27693;50.506;30.832;2023-08-17T05:51:44;11.20;10.70;8.30
42002;PMS7003;27693;50.506;30.832;2023-08-17T05:52:48;14.80;13.00;10.20
42002;PMS7003;27693;50.506;30.832;2023-08-17T05:53:50;10.70;9.70;8.40
42002;PMS7003;27693;50.506;30.832;2023-08-17T05:54:53;11.40;10.90;9.20